createdAt,value
2018-11-27T00:04:24.115Z,8.58
2018-11-27T00:06:53.103Z,8.58
2018-11-27T00:09:22.124Z,8.57
2018-11-27T00:11:51.150Z,8.55
2018-11-27T00:14:20.216Z,8.50
2018-11-27T00:16:49.438Z,8.48
2018-11-27T00:19:18.469Z,8.46
2018-11-27T00:21:47.519Z,8.43
2018-11-27T00:24:16.598Z,8.40
2018-11-27T00:26:45.679Z,8.36
2018-11-27T00:29:14.667Z,8.33
2018-11-27T00:31:43.701Z,8.31
2018-11-27T00:34:12.730Z,8.30
2018-11-27T00:36:41.855Z,8.29
2018-11-27T00:39:12.875Z,8.28
2018-11-27T00:41:42.822Z,8.28
2018-11-27T00:44:12.009Z,8.29
2018-11-27T00:46:41.000Z,8.31
2018-11-27T00:49:10.015Z,8.35
2018-11-27T00:51:39.054Z,8.36
2018-11-27T00:54:08.189Z,8.37
2018-11-27T00:56:37.170Z,8.36
2018-11-27T00:59:06.220Z,8.36
2018-11-27T01:01:35.247Z,8.33
2018-11-27T01:04:04.452Z,8.33
2018-11-27T01:06:33.490Z,8.35
2018-11-27T01:09:02.693Z,8.35
2018-11-27T01:11:31.678Z,8.37
2018-11-27T01:14:00.707Z,8.36
2018-11-27T01:16:29.787Z,8.38
2018-11-27T01:18:58.835Z,8.38
2018-11-27T01:21:27.902Z,8.41
2018-11-27T01:23:56.930Z,8.40
2018-11-27T01:26:26.006Z,8.40
2018-11-27T01:28:55.046Z,8.42
2018-11-27T01:31:24.116Z,8.41
2018-11-27T01:33:53.159Z,8.43
2018-11-27T01:36:22.419Z,8.46
2018-11-27T01:38:51.495Z,8.47
2018-11-27T01:41:20.458Z,8.49
2018-11-27T01:43:49.490Z,8.50
2018-11-27T01:46:18.499Z,8.54
2018-11-27T01:48:47.494Z,8.52
2018-11-27T01:51:16.548Z,8.55
2018-11-27T01:53:45.606Z,8.56
2018-11-27T01:56:14.662Z,8.57
2018-11-27T01:58:43.678Z,8.57
2018-11-27T02:01:12.687Z,8.57
2018-11-27T02:03:41.722Z,8.60
2018-11-27T02:06:10.738Z,8.59
2018-11-27T02:08:39.739Z,8.59
2018-11-27T02:11:08.958Z,8.59
2018-11-27T02:13:38.015Z,8.57
2018-11-27T02:16:07.617Z,8.57
2018-11-27T02:18:36.995Z,8.57
2018-11-27T02:21:06.071Z,8.56
2018-11-27T02:23:35.232Z,8.59
2018-11-27T02:26:04.313Z,8.58
2018-11-27T02:28:33.356Z,8.56
2018-11-27T02:31:02.374Z,8.55
2018-11-27T02:33:31.425Z,8.51
2018-11-27T02:36:00.427Z,8.51
2018-11-27T02:38:29.451Z,8.54
2018-11-27T02:40:58.467Z,8.52
2018-11-27T02:43:27.511Z,8.57
2018-11-27T02:45:56.521Z,8.59
2018-11-27T02:48:25.608Z,8.60
2018-11-27T02:50:54.627Z,8.62
2018-11-27T02:53:23.643Z,8.62
2018-11-27T02:55:52.679Z,8.62
2018-11-27T02:58:21.694Z,8.63
2018-11-27T03:00:50.765Z,8.63
2018-11-27T03:03:19.943Z,8.63
2018-11-27T03:05:49.003Z,8.65
2018-11-27T03:08:18.063Z,8.65
2018-11-27T03:10:47.098Z,8.66
2018-11-27T03:13:16.147Z,8.65
2018-11-27T03:15:46.132Z,8.65
2018-11-27T03:18:16.165Z,8.66
2018-11-27T03:20:46.348Z,8.67
2018-11-27T03:23:16.322Z,8.69
2018-11-27T03:25:46.267Z,8.69
2018-11-27T03:28:15.329Z,8.70
2018-11-27T03:30:44.358Z,8.70
2018-11-27T03:33:13.352Z,8.71
2018-11-27T03:35:42.395Z,8.71
2018-11-27T03:38:11.458Z,8.73
2018-11-27T03:40:40.443Z,8.72
2018-11-27T03:43:09.547Z,8.70
2018-11-27T03:45:38.571Z,8.72
2018-11-27T03:48:07.563Z,8.72
2018-11-27T03:50:36.559Z,8.74
2018-11-27T03:53:05.861Z,8.74
2018-11-27T03:55:35.153Z,8.72
2018-11-27T03:58:04.760Z,8.72
2018-11-27T04:00:34.783Z,8.73
2018-11-27T04:03:09.144Z,8.73
2018-11-27T04:05:38.742Z,8.74
2018-11-27T04:08:10.092Z,8.73
2018-11-27T04:10:40.778Z,8.73
2018-11-27T04:13:11.064Z,8.73
2018-11-27T04:15:40.794Z,8.74
2018-11-27T04:23:06.879Z,8.45
2018-11-27T04:25:35.879Z,8.45
2018-11-27T04:28:04.884Z,8.48
2018-11-27T04:30:33.926Z,8.50
2018-11-27T04:33:03.039Z,8.55
2018-11-27T04:35:32.040Z,8.57
2018-11-27T04:38:01.124Z,8.58
2018-11-27T04:40:30.188Z,8.61
2018-11-27T04:42:59.210Z,8.61
2018-11-27T04:45:28.244Z,8.59
2018-11-27T04:47:57.339Z,8.59
2018-11-27T04:50:26.459Z,8.58
2018-11-27T04:52:55.511Z,8.58
2018-11-27T04:55:24.518Z,8.58
2018-11-27T04:57:53.769Z,8.59
2018-11-27T05:00:27.328Z,8.60
2018-11-27T05:02:56.447Z,8.61
2018-11-27T05:05:25.439Z,8.62
2018-11-27T05:07:54.432Z,8.62
2018-11-27T05:10:24.312Z,8.63
2018-11-27T05:12:53.437Z,8.61
2018-11-27T05:15:25.203Z,8.62
2018-11-27T05:17:56.852Z,8.63
2018-11-27T05:20:25.885Z,8.62
2018-11-27T05:22:54.922Z,8.62
2018-11-27T05:25:24.002Z,8.60
2018-11-27T05:27:55.781Z,8.60
2018-11-27T05:30:28.582Z,8.60
2018-11-27T05:32:58.118Z,8.59
2018-11-27T05:35:30.198Z,8.60
2018-11-27T05:38:01.388Z,8.58
2018-11-27T05:40:30.426Z,8.55
2018-11-27T05:43:02.889Z,8.54
2018-11-27T05:45:32.552Z,8.52
2018-11-27T05:48:01.621Z,8.47
2018-11-27T05:50:30.667Z,8.40
2018-11-27T05:52:59.809Z,8.37
2018-11-27T05:55:28.868Z,8.29
2018-11-27T05:57:58.167Z,8.27
2018-11-27T06:00:28.882Z,8.22
2018-11-27T06:03:02.033Z,8.19
2018-11-27T06:05:31.213Z,8.15
2018-11-27T06:08:00.278Z,8.14
2018-11-27T06:10:29.351Z,8.19
2018-11-27T06:12:58.486Z,8.22
2018-11-27T06:15:27.545Z,8.25
2018-11-27T06:17:59.578Z,8.27
2018-11-27T06:20:28.657Z,8.31
2018-11-27T06:22:57.713Z,8.35
2018-11-27T06:25:29.083Z,8.38
2018-11-27T06:28:01.464Z,8.41
2018-11-27T06:30:33.214Z,8.45
2018-11-27T06:33:03.784Z,8.47
2018-11-27T06:35:37.739Z,8.50
2018-11-27T06:38:09.155Z,8.51
2018-11-27T06:40:43.849Z,8.52
2018-11-27T06:43:14.392Z,8.54
2018-11-27T06:45:44.777Z,8.54
2018-11-27T06:48:14.719Z,8.54
2018-11-27T06:50:44.407Z,8.55
2018-11-27T06:53:15.109Z,8.55
2018-11-27T06:55:45.580Z,8.56
2018-11-27T06:58:15.446Z,8.58
2018-11-27T07:00:45.601Z,8.59
2018-11-27T07:03:16.628Z,8.60
2018-11-27T07:05:47.022Z,8.61
2018-11-27T07:10:53.355Z,8.61
2018-11-27T07:13:25.291Z,8.63
2018-11-27T07:15:55.851Z,8.64
2018-11-27T07:18:26.991Z,8.63
2018-11-27T07:20:58.999Z,8.62
2018-11-27T07:23:29.737Z,8.63
2018-11-27T07:26:00.455Z,8.61
2018-11-27T07:28:30.898Z,8.60
2018-11-27T07:31:01.430Z,8.59
2018-11-27T07:33:31.206Z,8.56
2018-11-27T07:36:03.310Z,8.55
2018-11-27T07:38:36.498Z,8.55
2018-11-27T07:41:07.745Z,8.55
2018-11-27T07:43:38.304Z,8.55
2018-11-27T07:46:08.334Z,8.55
2018-11-27T07:48:38.609Z,8.54
2018-11-27T07:51:09.602Z,8.54
2018-11-27T07:53:40.012Z,8.55
2018-11-27T07:56:13.901Z,8.57
2018-11-27T07:58:43.451Z,8.58
2018-11-27T08:01:14.146Z,8.59
2018-11-27T08:03:43.911Z,8.58
2018-11-27T08:06:13.467Z,8.57
2018-11-27T08:08:42.979Z,8.57
2018-11-27T08:11:12.318Z,8.55
2018-11-27T08:13:42.444Z,8.51
2018-11-27T08:16:11.998Z,8.49
2018-11-27T08:18:41.663Z,8.46
2018-11-27T08:21:11.233Z,8.43
2018-11-27T08:23:41.343Z,8.41
2018-11-27T08:26:11.097Z,8.41
2018-11-27T08:28:41.563Z,8.40
2018-11-27T08:31:12.168Z,8.41
2018-11-27T08:33:41.790Z,8.42
2018-11-27T08:36:11.498Z,8.43
2018-11-27T08:38:41.575Z,8.46
2018-11-27T08:41:11.729Z,8.48
2018-11-27T08:43:42.599Z,8.47
2018-11-27T08:46:13.732Z,8.49
2018-11-27T08:48:44.009Z,8.49
2018-11-27T08:51:14.533Z,8.50
2018-11-27T08:53:46.317Z,8.51
2018-11-27T08:56:15.866Z,8.54
2018-11-27T08:58:48.384Z,8.57
2018-11-27T09:01:18.308Z,8.61
2018-11-27T09:04:00.351Z,8.67
2018-11-27T09:09:08.867Z,8.81
2018-11-27T09:11:38.145Z,8.86
2018-11-27T09:14:07.203Z,8.91
2018-11-27T09:16:36.227Z,8.95
2018-11-27T09:19:05.691Z,8.97
2018-11-27T09:21:34.694Z,9.03
2018-11-27T09:26:50.248Z,9.17
2018-11-27T09:29:21.943Z,9.22
2018-11-27T09:31:51.682Z,9.26
2018-11-27T09:34:21.163Z,9.29
2018-11-27T09:36:51.683Z,9.28
2018-11-27T09:39:21.091Z,9.28
2018-11-27T09:41:53.193Z,9.25
2018-11-27T09:44:22.690Z,9.25
2018-11-27T09:46:52.173Z,9.23
2018-11-27T09:49:22.807Z,9.20
2018-11-27T09:51:52.448Z,9.19
2018-11-27T09:54:22.686Z,9.16
2018-11-27T09:56:52.201Z,9.13
2018-11-27T09:59:21.505Z,9.13
2018-11-27T10:01:55.852Z,9.10
2018-11-27T10:04:27.369Z,9.08
2018-11-27T10:06:58.460Z,9.07
2018-11-27T10:09:29.291Z,9.07
2018-11-27T10:11:59.067Z,9.09
2018-11-27T10:14:29.787Z,9.14
2018-11-27T10:16:59.487Z,9.21
2018-11-27T10:19:30.466Z,9.24
2018-11-27T10:22:00.303Z,9.28
2018-11-27T10:24:30.908Z,9.27
2018-11-27T10:27:00.977Z,9.29
2018-11-27T10:29:31.299Z,9.34
2018-11-27T10:32:03.013Z,9.39
2018-11-27T10:34:32.652Z,9.43
2018-11-27T10:37:02.157Z,9.46
2018-11-27T10:39:31.590Z,9.44
2018-11-27T10:42:01.127Z,9.44
2018-11-27T10:44:33.626Z,9.45
2018-11-27T10:47:04.468Z,9.45
2018-11-27T10:49:38.137Z,9.49
2018-11-27T10:52:08.335Z,9.56
2018-11-27T10:54:37.899Z,9.59
2018-11-27T10:57:08.002Z,9.64
2018-11-27T10:59:37.810Z,9.63
2018-11-27T11:02:13.088Z,9.64
2018-11-27T11:05:20.339Z,9.62
2018-11-27T11:07:51.915Z,9.56
2018-11-27T11:10:23.553Z,9.57
2018-11-27T11:12:53.749Z,9.59
2018-11-27T11:15:23.649Z,9.66
2018-11-27T11:17:53.620Z,9.76
2018-11-27T11:20:24.014Z,9.88
2018-11-27T11:22:54.651Z,9.98
2018-11-27T11:25:25.332Z,10.02
2018-11-27T11:27:59.091Z,10.08
2018-11-27T11:30:30.132Z,10.15
2018-11-27T11:33:00.701Z,10.24
2018-11-27T11:35:30.951Z,10.32
2018-11-27T11:38:01.593Z,10.42
2018-11-27T11:40:33.971Z,10.56
2018-11-27T11:43:03.890Z,10.75
2018-11-27T11:45:34.238Z,10.92
2018-11-27T11:48:04.141Z,11.11
2018-11-27T11:50:35.761Z,11.29
2018-11-27T11:53:17.514Z,11.41
2018-11-27T11:55:50.148Z,11.53
2018-11-27T11:58:19.905Z,11.63
2018-11-27T12:00:51.991Z,11.71
2018-11-27T12:03:21.520Z,11.78
2018-11-27T12:05:51.876Z,11.80
2018-11-27T12:08:21.594Z,11.82
2018-11-27T12:10:51.561Z,11.79
2018-11-27T12:13:25.652Z,11.76
2018-11-27T12:15:56.009Z,11.71
2018-11-27T12:18:25.689Z,11.67
2018-11-27T12:20:55.460Z,11.63
2018-11-27T12:23:25.320Z,11.59
2018-11-27T12:25:55.830Z,11.54
2018-11-27T12:33:25.503Z,11.20
2018-11-27T12:35:54.523Z,11.18
2018-11-27T12:38:23.594Z,11.19
2018-11-27T12:40:52.610Z,11.19
2018-11-27T12:43:21.693Z,11.14
2018-11-27T12:45:50.704Z,11.11
2018-11-27T12:48:19.916Z,11.06
2018-11-27T12:50:49.664Z,11.06
2018-11-27T12:53:19.258Z,11.05
2018-11-27T12:55:51.187Z,11.06
2018-11-27T12:58:20.254Z,11.05
2018-11-27T13:00:49.484Z,11.06
2018-11-27T13:03:18.610Z,11.06
2018-11-27T13:05:48.093Z,11.06
2018-11-27T13:08:22.012Z,11.07
2018-11-27T13:10:51.413Z,11.09
2018-11-27T13:13:20.505Z,11.11
2018-11-27T13:15:49.586Z,11.13
2018-11-27T13:18:18.663Z,11.16
2018-11-27T13:20:47.695Z,11.20
2018-11-27T13:23:16.713Z,11.24
2018-11-27T13:25:45.882Z,11.27
2018-11-27T13:28:15.559Z,11.29
2018-11-27T13:30:55.914Z,11.30
2018-11-27T13:33:31.420Z,11.29
2018-11-27T13:36:00.573Z,11.30
2018-11-27T13:38:29.622Z,11.33
2018-11-27T13:40:58.655Z,11.34
2018-11-27T13:43:29.322Z,11.34
2018-11-27T13:46:00.011Z,11.34
2018-11-27T13:48:29.383Z,11.31
2018-11-27T13:50:58.421Z,11.26
2018-11-27T13:53:27.486Z,11.26
2018-11-27T13:55:56.551Z,11.23
2018-11-27T13:58:25.610Z,11.24
2018-11-27T14:00:54.674Z,11.24
2018-11-27T14:03:23.703Z,11.22
2018-11-27T14:05:52.719Z,11.18
2018-11-27T14:08:21.801Z,11.12
2018-11-27T14:10:50.849Z,11.02
2018-11-27T14:13:19.926Z,10.91
2018-11-27T14:15:48.950Z,10.82
2018-11-27T14:18:18.398Z,10.75
2018-11-27T14:20:47.488Z,10.69
2018-11-27T14:23:16.483Z,10.65
2018-11-27T14:25:45.514Z,10.63
2018-11-27T14:28:14.531Z,10.60
2018-11-27T14:30:43.593Z,10.54
2018-11-27T14:33:12.606Z,10.49
2018-11-27T14:35:41.639Z,10.47
2018-11-27T14:38:11.658Z,10.43
2018-11-27T14:40:41.675Z,10.42
2018-11-27T14:43:11.754Z,10.42
2018-11-27T14:45:40.795Z,10.42
2018-11-27T14:48:09.942Z,10.43
2018-11-27T14:50:38.978Z,10.45
2018-11-27T14:53:08.099Z,10.46
2018-11-27T14:55:37.322Z,10.46
2018-11-27T14:58:06.804Z,10.46
2018-11-27T15:00:35.919Z,10.46
2018-11-27T15:03:05.624Z,10.42
2018-11-27T15:05:37.312Z,10.38
2018-11-27T15:08:08.903Z,10.34
2018-11-27T15:10:37.926Z,10.30
2018-11-27T15:13:08.006Z,10.25
2018-11-27T15:15:37.248Z,10.23
2018-11-27T15:18:07.232Z,10.19
2018-11-27T15:20:36.303Z,10.17
2018-11-27T15:23:05.331Z,10.13
2018-11-27T15:25:34.443Z,10.10
2018-11-27T15:28:03.596Z,10.09
2018-11-27T15:30:38.546Z,10.08
2018-11-27T15:33:07.927Z,10.05
2018-11-27T15:35:37.886Z,10.05
2018-11-27T15:38:07.690Z,10.02
2018-11-27T15:40:38.203Z,9.98
2018-11-27T15:43:07.374Z,9.97
2018-11-27T15:45:36.382Z,9.95
2018-11-27T15:48:08.152Z,9.93
2018-11-27T15:50:37.300Z,9.91
2018-11-27T15:53:06.705Z,9.89
2018-11-27T15:55:38.954Z,9.89
2018-11-27T15:58:13.535Z,9.87
2018-11-27T16:00:43.683Z,9.86
2018-11-27T16:03:12.999Z,9.88
2018-11-27T16:05:44.196Z,9.88
2018-11-27T16:08:13.699Z,9.89
2018-11-27T16:10:42.730Z,9.89
2018-11-27T16:13:11.850Z,9.91
2018-11-27T16:15:41.938Z,9.92
2018-11-27T16:18:11.237Z,9.92
2018-11-27T16:20:40.316Z,9.92
2018-11-27T16:23:09.447Z,9.88
2018-11-27T16:25:38.519Z,9.86
2018-11-27T16:28:07.635Z,9.84
2018-11-27T16:30:36.675Z,9.82
2018-11-27T16:33:06.375Z,9.81
2018-11-27T16:35:35.547Z,9.82
2018-11-27T16:38:04.769Z,9.82
2018-11-27T16:40:37.344Z,9.83
2018-11-27T16:43:06.522Z,9.83
2018-11-27T16:45:35.552Z,9.78
2018-11-27T16:48:04.584Z,9.71
2018-11-27T16:50:34.390Z,9.63
2018-11-27T16:53:04.435Z,9.56
2018-11-27T16:55:34.522Z,9.47
2018-11-27T16:58:03.633Z,9.37
2018-11-27T17:00:34.658Z,9.24
2018-11-27T17:03:05.334Z,9.11
2018-11-27T17:05:37.713Z,9.02
2018-11-27T17:08:06.891Z,8.92
2018-11-27T17:10:36.314Z,8.80
2018-11-27T17:13:08.140Z,8.69
2018-11-27T17:15:37.324Z,8.59
2018-11-27T17:18:06.863Z,8.49
2018-11-27T17:20:38.112Z,8.40
2018-11-27T17:23:10.650Z,8.32
2018-11-27T17:25:39.727Z,8.26
2018-11-27T17:28:18.780Z,8.19
2018-11-27T17:30:59.942Z,8.11
2018-11-27T17:33:33.668Z,8.03
2018-11-27T17:36:03.730Z,7.98
2018-11-27T17:38:32.727Z,7.93
2018-11-27T17:41:02.223Z,7.86
2018-11-27T17:43:31.278Z,7.77
2018-11-27T17:46:00.382Z,7.73
2018-11-27T17:48:29.450Z,7.67
2018-11-27T17:50:58.628Z,7.62
2018-11-27T17:53:27.824Z,7.55
2018-11-27T17:55:56.905Z,7.53
2018-11-27T17:58:26.072Z,7.51
2018-11-27T18:00:55.134Z,7.49
2018-11-27T18:03:24.202Z,7.46
2018-11-27T18:05:53.279Z,7.41
2018-11-27T18:08:22.351Z,7.38
2018-11-27T18:10:51.801Z,7.34
2018-11-27T18:13:21.713Z,7.30
2018-11-27T18:15:50.756Z,7.27
2018-11-27T18:18:19.795Z,7.25
2018-11-27T18:20:48.840Z,7.19
2018-11-27T18:23:17.907Z,7.16
2018-11-27T18:25:46.967Z,7.09
2018-11-27T18:28:16.014Z,7.03
2018-11-27T18:30:45.677Z,6.99
2018-11-27T18:33:14.143Z,6.92
2018-11-27T18:35:43.179Z,6.86
2018-11-27T18:38:12.200Z,6.81
2018-11-27T18:40:41.237Z,6.76
2018-11-27T18:43:11.122Z,6.72
2018-11-27T18:45:40.202Z,6.67
2018-11-27T18:48:09.338Z,6.66
2018-11-27T18:50:38.435Z,6.61
2018-11-27T18:53:07.719Z,6.59
2018-11-27T18:55:36.836Z,6.54
2018-11-27T18:58:06.053Z,6.51
2018-11-27T19:00:35.515Z,6.49
2018-11-27T19:03:04.885Z,6.50
2018-11-27T19:05:33.938Z,6.55
2018-11-27T19:08:02.984Z,6.58
2018-11-27T19:10:33.528Z,6.64
2018-11-27T19:13:02.787Z,6.68
2018-11-27T19:15:36.023Z,6.72
2018-11-27T19:18:14.436Z,6.73
2018-11-27T19:20:43.573Z,6.73
2018-11-27T19:23:12.639Z,6.74
2018-11-27T19:25:41.694Z,6.74
2018-11-27T19:28:10.933Z,6.73
2018-11-27T19:30:39.969Z,6.73
2018-11-27T19:33:09.514Z,6.68
2018-11-27T19:35:38.891Z,6.66
2018-11-27T19:38:11.492Z,6.62
2018-11-27T19:40:40.582Z,6.58
2018-11-27T19:43:09.670Z,6.54
2018-11-27T19:45:38.863Z,6.53
2018-11-27T19:48:09.502Z,6.50
2018-11-27T19:50:38.693Z,6.46
2018-11-27T19:53:12.101Z,6.45
2018-11-27T19:55:42.624Z,6.40
2018-11-27T19:58:13.178Z,6.36
2018-11-27T20:00:45.204Z,6.33
2018-11-27T20:03:16.467Z,6.29
2018-11-27T20:05:52.684Z,6.26
2018-11-27T20:08:26.252Z,6.24
2018-11-27T20:10:56.999Z,6.20
2018-11-27T20:13:29.300Z,6.14
2018-11-27T20:16:01.236Z,6.10
2018-11-27T20:18:38.361Z,6.07
2018-11-27T20:21:19.220Z,6.03
2018-11-27T20:24:12.231Z,5.96
2018-11-27T20:26:43.294Z,5.91
2018-11-27T20:29:15.194Z,5.88
2018-11-27T20:31:50.918Z,5.84
2018-11-27T20:34:31.118Z,5.78
2018-11-27T20:37:03.085Z,5.75
2018-11-27T20:42:22.859Z,5.67
2018-11-27T20:45:19.167Z,5.66
2018-11-27T20:47:46.432Z,5.60
2018-11-27T20:50:25.049Z,5.55
2018-11-27T20:53:02.762Z,5.54
2018-11-27T20:55:32.697Z,5.52
2018-11-27T20:58:03.459Z,5.51
2018-11-27T21:00:36.817Z,5.54
2018-11-27T21:03:08.766Z,5.55
2018-11-27T21:05:38.636Z,5.57
2018-11-27T21:08:09.776Z,5.60
2018-11-27T21:10:42.178Z,5.63
2018-11-27T21:13:13.672Z,5.64
2018-11-27T21:15:44.542Z,5.63
2018-11-27T21:18:15.749Z,5.64
2018-11-27T21:20:46.765Z,5.64
2018-11-27T21:23:22.050Z,5.63
2018-11-27T21:26:21.765Z,5.59
2018-11-27T21:29:11.479Z,5.54
2018-11-27T21:31:44.637Z,5.50
2018-11-27T21:34:14.784Z,5.48
2018-11-27T21:36:45.592Z,5.46
2018-11-27T21:39:15.502Z,5.44
2018-11-27T21:41:47.095Z,5.43
2018-11-27T21:44:19.424Z,5.43
2018-11-27T21:46:53.075Z,5.42
2018-11-27T21:49:28.989Z,5.42
2018-11-27T21:52:04.030Z,5.41
2018-11-27T21:54:36.595Z,5.40
2018-11-27T21:57:10.702Z,5.39
2018-11-27T21:59:42.459Z,5.36
2018-11-27T22:02:14.091Z,5.37
2018-11-27T22:04:47.629Z,5.32
2018-11-27T22:07:21.566Z,5.32
2018-11-27T22:09:55.729Z,5.30
2018-11-27T22:12:31.957Z,5.28
2018-11-27T22:15:03.581Z,5.27
2018-11-27T22:17:35.658Z,5.27
2018-11-27T22:20:12.147Z,5.26
2018-11-27T22:22:43.352Z,5.25
2018-11-27T22:25:15.372Z,5.24
2018-11-27T22:27:45.934Z,5.25
2018-11-27T22:30:18.949Z,5.26
2018-11-27T22:32:57.954Z,5.27
2018-11-27T22:35:27.510Z,5.25
2018-11-27T22:38:01.893Z,5.24
2018-11-27T22:40:31.563Z,5.27
2018-11-27T22:43:02.812Z,5.25
2018-11-27T22:45:39.975Z,5.29
2018-11-27T22:48:12.266Z,5.32
2018-11-27T22:50:41.890Z,5.31
2018-11-27T22:53:12.126Z,5.33
2018-11-27T22:55:43.296Z,5.36
2018-11-27T22:58:13.937Z,5.37
2018-11-27T23:00:52.131Z,5.37
2018-11-27T23:03:22.708Z,5.36
2018-11-27T23:05:56.646Z,5.38
2018-11-27T23:08:26.370Z,5.39
2018-11-27T23:10:56.311Z,5.38
2018-11-27T23:13:27.668Z,5.39
2018-11-27T23:15:57.675Z,5.39
2018-11-27T23:18:27.007Z,5.42
2018-11-27T23:20:56.295Z,5.41
2018-11-27T23:23:25.750Z,5.40
2018-11-27T23:25:56.294Z,5.38
2018-11-27T23:28:25.689Z,5.34
2018-11-27T23:30:55.413Z,5.36
2018-11-27T23:33:25.409Z,5.34
2018-11-27T23:35:55.476Z,5.36
2018-11-27T23:38:25.039Z,5.33
2018-11-27T23:40:54.875Z,5.34
2018-11-27T23:43:24.669Z,5.34
2018-11-27T23:45:54.428Z,5.35
2018-11-27T23:48:23.947Z,5.34
2018-11-27T23:50:53.675Z,5.34
2018-11-27T23:53:24.125Z,5.34
2018-11-27T23:55:54.412Z,5.39
2018-11-27T23:58:24.541Z,5.40
